CST,Max TemperatureF,Mean TemperatureF,Min TemperatureF,Max Dew PointF,MeanDew PointF,Min DewpointF,Max Humidity, Mean Humidity, Min Humidity, Max Sea Level PressureIn, Mean Sea Level PressureIn, Min Sea Level PressureIn, Max VisibilityMiles, Mean VisibilityMiles, Min VisibilityMiles, Max Wind SpeedMPH, Mean Wind SpeedMPH, Max Gust SpeedMPH,PrecipitationIn, CloudCover, Events, WindDirDegrees
2014-2-1,16,-2,-19,4,-5,-23,91,74,54,30.00,29.93,29.86,10,10,5,9,2,,0.01,4,Snow,261
2014-2-2,10,-1,-12,-1,-7,-16,90,76,52,30.18,30.11,30.01,10,9,1,10,7,,0.00,1,Snow,276
2014-2-3,17,-4,-26,7,-9,-31,89,77,63,30.22,30.18,30.13,10,10,10,12,3,,0.02,0,,253
2014-2-4,14,-2,-17,6,-6,-23,91,77,52,30.37,30.29,30.23,10,8,0,14,2,,0.03,1,Fog-Snow,8
2014-2-5,6,2,-1,0,-2,-5,85,76,66,30.29,30.26,30.22,10,10,5,13,8,,0.00,6,Snow,340
2014-2-6,2,-4,-11,-5,-11,-15,85,75,63,30.26,30.15,30.08,10,10,5,20,10,25,0.11,1,Snow,269
2014-2-7,7,-2,-10,-5,-10,-15,84,70,54,30.10,30.04,30.01,10,9,5,21,13,26,0.09,1,,256
2014-2-8,13,-4,-22,2,-8,-27,88,76,60,30.10,30.06,30.02,10,10,4,12,3,,0.09,2,Snow,262
2014-2-9,12,2,-11,2,-3,-16,84,71,56,30.17,30.06,30.01,10,10,4,14,6,20,0.02,3,Snow,307
2014-2-10,4,-6,-17,-9,-14,-22,82,69,53,30.33,30.25,30.17,10,10,10,12,8,12,0.00,0,,299
2014-2-11,9,-10,-28,-4,-15,-34,82,70,53,30.36,30.27,30.11,10,10,10,14,3,,0.00,0,,197
2014-2-12,14,4,-6,9,1,-10,92,81,65,30.11,30.00,29.88,10,6,0,15,8,,0.10,7,Fog-Snow,229
2014-2-13,19,8,-4,18,11,-8,96,92,84,29.87,29.56,29.40,10,4,0,17,7,23,0.10,6,Snow,170
2014-2-14,18,8,-4,10,3,-7,89,77,64,29.90,29.70,29.49,10,10,7,17,12,23,0.07,1,Snow,332
2014-2-15,16,0,-17,8,-3,-22,90,79,58,29.95,29.90,29.85,10,8,1,10,4,,0.07,5,Snow,156
2014-2-16,18,8,-1,8,2,-4,92,79,51,30.19,30.09,29.88,10,10,5,12,4,,0.44,2,Snow,39
2014-2-17,22,14,6,19,13,3,95,91,85,30.17,29.86,29.68,10,5,0,21,11,28,1.05,8,Snow,134
2014-2-18,30,20,10,25,18,9,97,92,79,29.74,29.63,29.53,10,4,0,16,5,20,0.04,5,Fog-Snow,205
2014-2-19,35,18,1,26,17,-1,99,79,51,29.83,29.75,29.60,10,8,0,16,5,21,0.00,2,Fog,240
2014-2-20,33,24,16,32,25,12,98,85,72,29.82,29.56,28.85,10,7,0,32,11,44,0.94,7,Snow,112
2014-2-21,31,20,8,31,13,4,100,87,81,29.52,29.20,28.83,5,2,0,29,15,39,0.36,8,Snow,253
2014-2-22,14,9,3,6,3,-1,84,77,67,29.88,29.73,29.53,10,8,3,23,18,30,0.00,,,264
2014-2-23,14,6,-2,4,-1,-6,85,72,61,29.99,29.95,29.88,10,10,7,22,14,30,0.00,,,273
2014-2-24,12,6,0,0,-2,-4,85,70,55,30.11,30.06,30.00,10,10,4,17,11,21,0.00,1,,292
2014-2-25,6,0,-7,-2,-8,-14,87,69,53,30.09,30.04,29.98,10,10,5,20,11,25,0.00,2,,292
2014-2-26,10,-2,-13,0,-11,-20,85,70,51,30.05,29.71,29.42,10,7,0,28,13,34,0.00,4,Snow,265
2014-2-27,0,-10,-22,-8,-18,-28,79,60,39,30.05,29.91,29.56,10,9,2,22,12,29,0.00,2,Snow,296
2014-2-28,7,-11,-29,4,-12,-35,87,72,50,30.05,29.96,29.87,10,8,0,16,5,,0.00,5,Snow,187